sensor_id;sensor_type;location;lat;lon;timestamp;P1;durP1;ratioP1;P2;durP2;ratioP2
71125;SDS011;58785;55.566;38.058;2023-07-20T00:01:07;8.40;;;1.10;;
71125;SDS011;58785;55.566;38.058;2023-07-20T00:03:33;5.32;;;1.15;;
71125;SDS011;58785;55.566;38.058;2023-07-20T00:05:58;5.47;;;1.30;;
71125;SDS011;58785;55.566;38.058;2023-07-20T00:08:24;4.80;;;1.20;;
71125;SDS011;58785;55.566;38.058;2023-07-20T00:10:50;6.25;;;1.42;;
71125;SDS011;58785;55.566;38.058;2023-07-20T00:13:16;5.40;;;1.33;;
71125;SDS011;58785;55.566;38.058;2023-07-20T00:15:43;5.23;;;1.10;;
71125;SDS011;58785;55.566;38.058;2023-07-20T00:18:09;7.60;;;1.30;;
71125;SDS011;58785;55.566;38.058;2023-07-20T00:20:35;5.22;;;1.00;;
71125;SDS011;58785;55.566;38.058;2023-07-20T00:23:01;5.87;;;1.17;;
71125;SDS011;58785;55.566;38.058;2023-07-20T00:25:27;5.68;;;0.98;;
71125;SDS011;58785;55.566;38.058;2023-07-20T00:27:52;6.25;;;1.20;;
71125;SDS011;58785;55.566;38.058;2023-07-20T00:30:18;4.37;;;1.10;;
71125;SDS011;58785;55.566;38.058;2023-07-20T00:32:44;5.38;;;1.30;;
71125;SDS011;58785;55.566;38.058;2023-07-20T00:35:10;5.50;;;1.13;;
71125;SDS011;58785;55.566;38.058;2023-07-20T00:37:37;4.93;;;1.20;;
71125;SDS011;58785;55.566;38.058;2023-07-20T00:40:04;4.63;;;1.30;;
71125;SDS011;58785;55.566;38.058;2023-07-20T00:42:30;4.78;;;1.20;;
71125;SDS011;58785;55.566;38.058;2023-07-20T00:44:56;6.40;;;1.48;;
71125;SDS011;58785;55.566;38.058;2023-07-20T00:47:22;7.03;;;1.20;;
71125;SDS011;58785;55.566;38.058;2023-07-20T00:49:48;4.20;;;1.15;;
71125;SDS011;58785;55.566;38.058;2023-07-20T00:52:14;4.50;;;1.20;;
71125;SDS011;58785;55.566;38.058;2023-07-20T00:54:41;3.95;;;1.08;;
71125;SDS011;58785;55.566;38.058;2023-07-20T00:57:07;8.10;;;1.30;;
71125;SDS011;58785;55.566;38.058;2023-07-20T00:59:36;4.88;;;1.10;;
71125;SDS011;58785;55.566;38.058;2023-07-20T01:02:02;4.80;;;1.30;;
71125;SDS011;58785;55.566;38.058;2023-07-20T01:04:28;4.37;;;1.20;;
71125;SDS011;58785;55.566;38.058;2023-07-20T01:06:58;4.15;;;1.00;;
71125;SDS011;58785;55.566;38.058;2023-07-20T01:09:34;7.60;;;1.20;;
71125;SDS011;58785;55.566;38.058;2023-07-20T01:12:30;7.28;;;1.33;;
71125;SDS011;58785;55.566;38.058;2023-07-20T01:15:00;8.07;;;1.30;;
71125;SDS011;58785;55.566;38.058;2023-07-20T01:17:26;6.03;;;1.60;;
71125;SDS011;58785;55.566;38.058;2023-07-20T01:19:52;6.40;;;1.25;;
71125;SDS011;58785;55.566;38.058;2023-07-20T01:22:28;4.33;;;1.33;;
71125;SDS011;58785;55.566;38.058;2023-07-20T01:25:34;6.78;;;1.35;;
71125;SDS011;58785;55.566;38.058;2023-07-20T01:30:51;4.72;;;1.35;;
71125;SDS011;58785;55.566;38.058;2023-07-20T01:33:24;6.68;;;1.52;;
71125;SDS011;58785;55.566;38.058;2023-07-20T01:35:53;5.57;;;1.50;;
71125;SDS011;58785;55.566;38.058;2023-07-20T01:38:22;5.10;;;1.20;;
71125;SDS011;58785;55.566;38.058;2023-07-20T01:40:49;7.85;;;1.50;;
71125;SDS011;58785;55.566;38.058;2023-07-20T01:43:16;5.22;;;1.17;;
71125;SDS011;58785;55.566;38.058;2023-07-20T01:45:43;7.05;;;1.30;;
71125;SDS011;58785;55.566;38.058;2023-07-20T01:48:09;4.70;;;1.20;;
71125;SDS011;58785;55.566;38.058;2023-07-20T01:50:35;5.88;;;1.27;;
71125;SDS011;58785;55.566;38.058;2023-07-20T01:53:01;4.55;;;1.15;;
71125;SDS011;58785;55.566;38.058;2023-07-20T01:55:27;5.38;;;1.42;;
71125;SDS011;58785;55.566;38.058;2023-07-20T01:57:52;4.33;;;1.30;;
71125;SDS011;58785;55.566;38.058;2023-07-20T02:00:20;4.80;;;1.42;;
71125;SDS011;58785;55.566;38.058;2023-07-20T02:02:49;5.10;;;1.38;;
71125;SDS011;58785;55.566;38.058;2023-07-20T02:05:15;4.38;;;1.48;;
71125;SDS011;58785;55.566;38.058;2023-07-20T02:07:42;5.40;;;1.17;;
71125;SDS011;58785;55.566;38.058;2023-07-20T02:10:08;4.93;;;1.40;;
71125;SDS011;58785;55.566;38.058;2023-07-20T02:12:35;5.50;;;1.35;;
71125;SDS011;58785;55.566;38.058;2023-07-20T02:15:01;5.00;;;1.20;;
71125;SDS011;58785;55.566;38.058;2023-07-20T02:17:30;6.75;;;1.52;;
71125;SDS011;58785;55.566;38.058;2023-07-20T02:20:16;7.40;;;1.93;;
71125;SDS011;58785;55.566;38.058;2023-07-20T02:22:42;6.97;;;2.50;;
71125;SDS011;58785;55.566;38.058;2023-07-20T02:25:08;11.30;;;2.53;;
71125;SDS011;58785;55.566;38.058;2023-07-20T02:27:34;10.07;;;2.20;;
71125;SDS011;58785;55.566;38.058;2023-07-20T02:30:00;7.50;;;2.20;;
71125;SDS011;58785;55.566;38.058;2023-07-20T02:32:26;5.93;;;1.50;;
71125;SDS011;58785;55.566;38.058;2023-07-20T02:34:53;4.80;;;1.27;;
71125;SDS011;58785;55.566;38.058;2023-07-20T02:37:19;6.13;;;1.20;;
71125;SDS011;58785;55.566;38.058;2023-07-20T02:39:45;5.50;;;1.10;;
71125;SDS011;58785;55.566;38.058;2023-07-20T02:42:10;9.70;;;1.10;;
71125;SDS011;58785;55.566;38.058;2023-07-20T02:44:36;4.72;;;1.13;;
71125;SDS011;58785;55.566;38.058;2023-07-20T02:47:02;10.03;;;1.53;;
71125;SDS011;58785;55.566;38.058;2023-07-20T02:49:28;6.70;;;1.58;;
71125;SDS011;58785;55.566;38.058;2023-07-20T02:51:53;4.85;;;1.40;;
71125;SDS011;58785;55.566;38.058;2023-07-20T02:54:21;4.30;;;1.30;;
71125;SDS011;58785;55.566;38.058;2023-07-20T02:56:46;4.35;;;1.30;;
71125;SDS011;58785;55.566;38.058;2023-07-20T02:59:12;4.05;;;1.25;;
71125;SDS011;58785;55.566;38.058;2023-07-20T03:01:38;5.07;;;1.33;;
71125;SDS011;58785;55.566;38.058;2023-07-20T03:04:04;6.57;;;1.58;;
71125;SDS011;58785;55.566;38.058;2023-07-20T03:06:29;4.73;;;1.43;;
71125;SDS011;58785;55.566;38.058;2023-07-20T03:08:55;4.50;;;1.35;;
71125;SDS011;58785;55.566;38.058;2023-07-20T03:11:21;5.00;;;1.50;;
71125;SDS011;58785;55.566;38.058;2023-07-20T03:13:47;5.67;;;1.30;;
71125;SDS011;58785;55.566;38.058;2023-07-20T03:16:14;4.28;;;1.20;;
71125;SDS011;58785;55.566;38.058;2023-07-20T03:18:41;7.82;;;1.45;;
71125;SDS011;58785;55.566;38.058;2023-07-20T03:21:08;4.33;;;1.30;;
71125;SDS011;58785;55.566;38.058;2023-07-20T03:23:36;7.63;;;2.08;;
71125;SDS011;58785;55.566;38.058;2023-07-20T03:26:02;5.55;;;1.30;;
71125;SDS011;58785;55.566;38.058;2023-07-20T03:28:28;6.10;;;1.60;;
71125;SDS011;58785;55.566;38.058;2023-07-20T03:30:54;4.87;;;1.40;;
71125;SDS011;58785;55.566;38.058;2023-07-20T03:33:21;4.82;;;1.20;;
71125;SDS011;58785;55.566;38.058;2023-07-20T03:35:47;4.50;;;1.30;;
71125;SDS011;58785;55.566;38.058;2023-07-20T03:38:13;6.97;;;1.50;;
71125;SDS011;58785;55.566;38.058;2023-07-20T03:40:39;6.40;;;1.38;;
71125;SDS011;58785;55.566;38.058;2023-07-20T03:43:04;6.50;;;1.47;;
71125;SDS011;58785;55.566;38.058;2023-07-20T03:45:30;5.40;;;1.30;;
71125;SDS011;58785;55.566;38.058;2023-07-20T03:47:57;7.18;;;1.25;;
71125;SDS011;58785;55.566;38.058;2023-07-20T03:50:23;6.28;;;1.40;;
71125;SDS011;58785;55.566;38.058;2023-07-20T03:52:48;6.63;;;2.30;;
71125;SDS011;58785;55.566;38.058;2023-07-20T03:55:15;4.93;;;1.60;;
71125;SDS011;58785;55.566;38.058;2023-07-20T03:57:40;9.13;;;1.70;;
71125;SDS011;58785;55.566;38.058;2023-07-20T04:00:06;8.23;;;1.40;;
71125;SDS011;58785;55.566;38.058;2023-07-20T04:02:33;5.35;;;1.40;;
71125;SDS011;58785;55.566;38.058;2023-07-20T04:04:58;5.50;;;1.60;;
71125;SDS011;58785;55.566;38.058;2023-07-20T04:07:24;4.40;;;1.30;;
71125;SDS011;58785;55.566;38.058;2023-07-20T04:09:50;4.10;;;1.20;;
71125;SDS011;58785;55.566;38.058;2023-07-20T04:12:16;4.85;;;1.13;;
71125;SDS011;58785;55.566;38.058;2023-07-20T04:14:42;6.15;;;1.55;;
71125;SDS011;58785;55.566;38.058;2023-07-20T04:17:08;4.73;;;1.20;;
71125;SDS011;58785;55.566;38.058;2023-07-20T04:19:33;5.28;;;1.40;;
71125;SDS011;58785;55.566;38.058;2023-07-20T04:21:59;6.60;;;1.70;;
71125;SDS011;58785;55.566;38.058;2023-07-20T04:24:25;6.57;;;1.10;;
71125;SDS011;58785;55.566;38.058;2023-07-20T04:26:50;4.07;;;0.93;;
71125;SDS011;58785;55.566;38.058;2023-07-20T04:29:16;4.78;;;1.20;;
71125;SDS011;58785;55.566;38.058;2023-07-20T04:31:42;7.60;;;1.10;;
71125;SDS011;58785;55.566;38.058;2023-07-20T04:34:07;8.00;;;1.30;;
71125;SDS011;58785;55.566;38.058;2023-07-20T04:36:33;5.97;;;0.80;;
71125;SDS011;58785;55.566;38.058;2023-07-20T04:38:59;5.18;;;1.02;;
71125;SDS011;58785;55.566;38.058;2023-07-20T04:41:24;4.97;;;1.65;;
71125;SDS011;58785;55.566;38.058;2023-07-20T04:43:50;5.63;;;1.43;;
71125;SDS011;58785;55.566;38.058;2023-07-20T04:46:16;6.20;;;1.43;;
71125;SDS011;58785;55.566;38.058;2023-07-20T04:48:45;4.38;;;1.20;;
71125;SDS011;58785;55.566;38.058;2023-07-20T04:51:11;4.50;;;1.50;;
71125;SDS011;58785;55.566;38.058;2023-07-20T04:53:36;7.05;;;1.48;;
71125;SDS011;58785;55.566;38.058;2023-07-20T04:56:02;5.13;;;1.30;;
71125;SDS011;58785;55.566;38.058;2023-07-20T04:58:28;5.75;;;1.70;;
71125;SDS011;58785;55.566;38.058;2023-07-20T05:00:53;5.10;;;1.60;;
71125;SDS011;58785;55.566;38.058;2023-07-20T05:03:19;5.90;;;1.50;;
71125;SDS011;58785;55.566;38.058;2023-07-20T05:05:46;6.23;;;1.70;;
71125;SDS011;58785;55.566;38.058;2023-07-20T05:08:13;5.53;;;1.20;;
71125;SDS011;58785;55.566;38.058;2023-07-20T05:10:39;14.40;;;2.50;;
71125;SDS011;58785;55.566;38.058;2023-07-20T05:13:05;5.65;;;1.20;;
71125;SDS011;58785;55.566;38.058;2023-07-20T05:15:32;4.97;;;1.40;;
71125;SDS011;58785;55.566;38.058;2023-07-20T05:17:59;5.05;;;1.70;;
71125;SDS011;58785;55.566;38.058;2023-07-20T05:20:25;4.88;;;1.42;;
71125;SDS011;58785;55.566;38.058;2023-07-20T05:22:50;4.87;;;1.50;;
71125;SDS011;58785;55.566;38.058;2023-07-20T05:25:20;6.10;;;1.30;;
71125;SDS011;58785;55.566;38.058;2023-07-20T05:27:55;3.78;;;1.20;;
71125;SDS011;58785;55.566;38.058;2023-07-20T05:30:21;6.87;;;1.30;;
71125;SDS011;58785;55.566;38.058;2023-07-20T05:32:47;6.78;;;1.00;;
71125;SDS011;58785;55.566;38.058;2023-07-20T05:35:17;4.50;;;0.95;;
71125;SDS011;58785;55.566;38.058;2023-07-20T05:37:44;4.35;;;1.30;;
71125;SDS011;58785;55.566;38.058;2023-07-20T05:40:10;7.03;;;2.10;;
71125;SDS011;58785;55.566;38.058;2023-07-20T05:42:38;5.85;;;1.35;;
71125;SDS011;58785;55.566;38.058;2023-07-20T05:45:04;5.57;;;1.20;;
71125;SDS011;58785;55.566;38.058;2023-07-20T05:47:33;4.70;;;1.10;;
71125;SDS011;58785;55.566;38.058;2023-07-20T05:49:59;4.75;;;1.20;;
71125;SDS011;58785;55.566;38.058;2023-07-20T05:52:25;4.43;;;1.40;;
71125;SDS011;58785;55.566;38.058;2023-07-20T05:54:51;5.95;;;1.35;;
71125;SDS011;58785;55.566;38.058;2023-07-20T05:57:16;6.10;;;1.40;;
71125;SDS011;58785;55.566;38.058;2023-07-20T05:59:42;8.65;;;1.50;;
71125;SDS011;58785;55.566;38.058;2023-07-20T06:02:10;6.15;;;1.48;;
71125;SDS011;58785;55.566;38.058;2023-07-20T06:04:36;4.50;;;1.10;;
71125;SDS011;58785;55.566;38.058;2023-07-20T06:07:02;5.85;;;1.27;;
71125;SDS011;58785;55.566;38.058;2023-07-20T06:09:27;5.97;;;1.25;;
71125;SDS011;58785;55.566;38.058;2023-07-20T06:11:55;5.90;;;1.40;;
71125;SDS011;58785;55.566;38.058;2023-07-20T06:14:21;5.45;;;1.50;;
71125;SDS011;58785;55.566;38.058;2023-07-20T06:16:47;4.65;;;1.15;;
71125;SDS011;58785;55.566;38.058;2023-07-20T06:19:13;4.33;;;1.70;;
71125;SDS011;58785;55.566;38.058;2023-07-20T06:21:39;5.07;;;1.10;;
71125;SDS011;58785;55.566;38.058;2023-07-20T06:24:05;3.63;;;1.10;;
71125;SDS011;58785;55.566;38.058;2023-07-20T06:26:31;5.38;;;1.20;;
71125;SDS011;58785;55.566;38.058;2023-07-20T06:29:03;4.47;;;1.53;;
71125;SDS011;58785;55.566;38.058;2023-07-20T06:31:29;4.38;;;1.25;;
71125;SDS011;58785;55.566;38.058;2023-07-20T06:33:54;4.32;;;1.63;;
71125;SDS011;58785;55.566;38.058;2023-07-20T06:36:20;5.77;;;1.30;;
71125;SDS011;58785;55.566;38.058;2023-07-20T06:38:46;6.63;;;1.30;;
71125;SDS011;58785;55.566;38.058;2023-07-20T06:41:11;9.13;;;1.40;;
71125;SDS011;58785;55.566;38.058;2023-07-20T06:43:37;5.53;;;1.30;;
71125;SDS011;58785;55.566;38.058;2023-07-20T06:46:03;4.27;;;1.10;;
71125;SDS011;58785;55.566;38.058;2023-07-20T06:48:29;5.25;;;1.15;;
71125;SDS011;58785;55.566;38.058;2023-07-20T06:50:55;4.50;;;1.05;;
71125;SDS011;58785;55.566;38.058;2023-07-20T06:53:21;3.93;;;1.20;;
71125;SDS011;58785;55.566;38.058;2023-07-20T06:55:47;3.55;;;0.88;;
71125;SDS011;58785;55.566;38.058;2023-07-20T06:58:12;7.38;;;2.25;;
71125;SDS011;58785;55.566;38.058;2023-07-20T07:00:38;3.92;;;0.98;;
71125;SDS011;58785;55.566;38.058;2023-07-20T07:03:04;4.70;;;1.20;;
71125;SDS011;58785;55.566;38.058;2023-07-20T07:05:30;7.35;;;1.30;;
71125;SDS011;58785;55.566;38.058;2023-07-20T07:07:56;5.30;;;1.40;;
71125;SDS011;58785;55.566;38.058;2023-07-20T07:10:21;4.25;;;1.10;;
71125;SDS011;58785;55.566;38.058;2023-07-20T07:12:47;5.75;;;1.08;;
71125;SDS011;58785;55.566;38.058;2023-07-20T07:15:13;6.33;;;1.20;;
71125;SDS011;58785;55.566;38.058;2023-07-20T07:17:39;3.35;;;0.73;;
71125;SDS011;58785;55.566;38.058;2023-07-20T07:20:05;4.53;;;1.10;;
71125;SDS011;58785;55.566;38.058;2023-07-20T07:22:32;6.25;;;1.55;;
71125;SDS011;58785;55.566;38.058;2023-07-20T07:24:58;3.77;;;0.90;;
71125;SDS011;58785;55.566;38.058;2023-07-20T07:27:23;4.15;;;1.23;;
71125;SDS011;58785;55.566;38.058;2023-07-20T07:29:49;4.10;;;1.10;;
71125;SDS011;58785;55.566;38.058;2023-07-20T07:32:15;5.68;;;1.30;;
71125;SDS011;58785;55.566;38.058;2023-07-20T07:34:43;8.57;;;1.20;;
71125;SDS011;58785;55.566;38.058;2023-07-20T07:37:12;7.57;;;0.97;;
71125;SDS011;58785;55.566;38.058;2023-07-20T07:39:38;3.92;;;1.05;;
71125;SDS011;58785;55.566;38.058;2023-07-20T07:42:04;4.63;;;0.93;;
71125;SDS011;58785;55.566;38.058;2023-07-20T07:44:31;4.30;;;1.42;;
71125;SDS011;58785;55.566;38.058;2023-07-20T07:46:56;4.93;;;1.50;;
71125;SDS011;58785;55.566;38.058;2023-07-20T07:49:22;5.82;;;1.20;;
71125;SDS011;58785;55.566;38.058;2023-07-20T07:51:48;6.63;;;1.10;;
71125;SDS011;58785;55.566;38.058;2023-07-20T07:54:14;7.47;;;1.00;;
71125;SDS011;58785;55.566;38.058;2023-07-20T07:56:40;4.15;;;0.90;;
71125;SDS011;58785;55.566;38.058;2023-07-20T07:59:06;4.60;;;1.70;;
71125;SDS011;58785;55.566;38.058;2023-07-20T08:01:32;6.20;;;1.50;;
71125;SDS011;58785;55.566;38.058;2023-07-20T08:03:58;4.53;;;1.17;;
71125;SDS011;58785;55.566;38.058;2023-07-20T08:06:23;4.45;;;1.00;;
71125;SDS011;58785;55.566;38.058;2023-07-20T08:08:50;6.22;;;1.30;;
71125;SDS011;58785;55.566;38.058;2023-07-20T08:11:16;4.97;;;1.10;;
71125;SDS011;58785;55.566;38.058;2023-07-20T08:13:43;4.43;;;1.37;;
71125;SDS011;58785;55.566;38.058;2023-07-20T08:16:09;5.90;;;1.30;;
71125;SDS011;58785;55.566;38.058;2023-07-20T08:18:34;5.85;;;1.80;;
71125;SDS011;58785;55.566;38.058;2023-07-20T08:21:00;6.97;;;1.30;;
71125;SDS011;58785;55.566;38.058;2023-07-20T08:23:26;5.15;;;1.10;;
71125;SDS011;58785;55.566;38.058;2023-07-20T08:25:53;6.63;;;1.95;;
71125;SDS011;58785;55.566;38.058;2023-07-20T08:28:18;4.00;;;1.43;;
71125;SDS011;58785;55.566;38.058;2023-07-20T08:30:46;7.23;;;1.40;;
71125;SDS011;58785;55.566;38.058;2023-07-20T08:33:14;5.97;;;1.30;;
71125;SDS011;58785;55.566;38.058;2023-07-20T08:35:40;6.85;;;1.20;;
71125;SDS011;58785;55.566;38.058;2023-07-20T08:38:07;12.15;;;1.85;;
71125;SDS011;58785;55.566;38.058;2023-07-20T08:40:34;4.23;;;1.30;;
71125;SDS011;58785;55.566;38.058;2023-07-20T08:43:05;6.60;;;1.48;;
71125;SDS011;58785;55.566;38.058;2023-07-20T08:45:32;6.07;;;1.27;;
71125;SDS011;58785;55.566;38.058;2023-07-20T08:48:00;5.43;;;1.20;;
71125;SDS011;58785;55.566;38.058;2023-07-20T08:50:28;5.63;;;1.77;;
71125;SDS011;58785;55.566;38.058;2023-07-20T08:52:56;5.93;;;1.70;;
71125;SDS011;58785;55.566;38.058;2023-07-20T08:55:24;9.32;;;2.00;;
71125;SDS011;58785;55.566;38.058;2023-07-20T08:57:52;7.25;;;1.80;;
71125;SDS011;58785;55.566;38.058;2023-07-20T09:00:23;5.05;;;1.30;;
71125;SDS011;58785;55.566;38.058;2023-07-20T09:02:51;4.35;;;1.30;;
71125;SDS011;58785;55.566;38.058;2023-07-20T09:05:18;5.17;;;1.63;;
71125;SDS011;58785;55.566;38.058;2023-07-20T09:07:44;6.38;;;1.48;;
71125;SDS011;58785;55.566;38.058;2023-07-20T09:10:10;4.72;;;1.20;;
71125;SDS011;58785;55.566;38.058;2023-07-20T09:12:38;6.32;;;1.60;;
71125;SDS011;58785;55.566;38.058;2023-07-20T09:15:09;6.28;;;1.38;;
71125;SDS011;58785;55.566;38.058;2023-07-20T09:17:36;7.77;;;1.40;;
71125;SDS011;58785;55.566;38.058;2023-07-20T09:20:06;4.25;;;0.98;;
71125;SDS011;58785;55.566;38.058;2023-07-20T09:22:36;5.25;;;1.45;;
71125;SDS011;58785;55.566;38.058;2023-07-20T09:25:06;5.25;;;1.13;;
71125;SDS011;58785;55.566;38.058;2023-07-20T09:27:37;4.28;;;1.33;;
71125;SDS011;58785;55.566;38.058;2023-07-20T09:30:04;5.57;;;1.50;;
71125;SDS011;58785;55.566;38.058;2023-07-20T09:32:37;6.38;;;1.60;;
71125;SDS011;58785;55.566;38.058;2023-07-20T09:35:14;7.22;;;1.60;;
71125;SDS011;58785;55.566;38.058;2023-07-20T09:37:49;5.43;;;1.23;;
71125;SDS011;58785;55.566;38.058;2023-07-20T09:40:19;4.28;;;1.13;;
71125;SDS011;58785;55.566;38.058;2023-07-20T09:42:46;5.87;;;1.10;;
71125;SDS011;58785;55.566;38.058;2023-07-20T09:45:12;4.03;;;1.30;;
71125;SDS011;58785;55.566;38.058;2023-07-20T09:47:38;5.32;;;1.52;;
71125;SDS011;58785;55.566;38.058;2023-07-20T09:50:04;5.05;;;1.10;;
71125;SDS011;58785;55.566;38.058;2023-07-20T09:52:39;7.10;;;1.38;;
71125;SDS011;58785;55.566;38.058;2023-07-20T09:55:09;8.00;;;1.37;;
71125;SDS011;58785;55.566;38.058;2023-07-20T09:57:36;5.50;;;1.52;;
71125;SDS011;58785;55.566;38.058;2023-07-20T10:00:03;5.28;;;1.50;;
71125;SDS011;58785;55.566;38.058;2023-07-20T10:02:40;8.13;;;1.45;;
71125;SDS011;58785;55.566;38.058;2023-07-20T10:05:09;5.40;;;1.67;;
71125;SDS011;58785;55.566;38.058;2023-07-20T10:07:40;8.40;;;1.70;;
71125;SDS011;58785;55.566;38.058;2023-07-20T10:10:10;9.15;;;1.60;;
71125;SDS011;58785;55.566;38.058;2023-07-20T10:12:39;6.40;;;1.55;;
71125;SDS011;58785;55.566;38.058;2023-07-20T10:15:18;4.32;;;1.27;;
71125;SDS011;58785;55.566;38.058;2023-07-20T10:17:53;5.50;;;2.27;;
71125;SDS011;58785;55.566;38.058;2023-07-20T10:20:35;7.93;;;2.10;;
71125;SDS011;58785;55.566;38.058;2023-07-20T10:23:04;5.80;;;2.30;;
71125;SDS011;58785;55.566;38.058;2023-07-20T10:25:31;5.82;;;1.80;;
71125;SDS011;58785;55.566;38.058;2023-07-20T10:27:57;5.18;;;1.98;;
71125;SDS011;58785;55.566;38.058;2023-07-20T10:30:24;4.50;;;1.70;;
71125;SDS011;58785;55.566;38.058;2023-07-20T10:32:51;9.93;;;3.80;;
71125;SDS011;58785;55.566;38.058;2023-07-20T10:35:18;8.15;;;3.00;;
71125;SDS011;58785;55.566;38.058;2023-07-20T10:40:26;6.40;;;2.00;;
71125;SDS011;58785;55.566;38.058;2023-07-20T10:43:00;6.60;;;2.17;;
71125;SDS011;58785;55.566;38.058;2023-07-20T10:45:35;6.72;;;2.58;;
71125;SDS011;58785;55.566;38.058;2023-07-20T10:48:22;11.13;;;3.40;;
71125;SDS011;58785;55.566;38.058;2023-07-20T10:51:08;12.23;;;4.45;;
71125;SDS011;58785;55.566;38.058;2023-07-20T10:53:41;11.63;;;3.72;;
71125;SDS011;58785;55.566;38.058;2023-07-20T10:56:14;9.17;;;3.40;;
71125;SDS011;58785;55.566;38.058;2023-07-20T10:58:46;6.55;;;1.98;;
71125;SDS011;58785;55.566;38.058;2023-07-20T11:01:17;5.93;;;2.10;;
71125;SDS011;58785;55.566;38.058;2023-07-20T11:03:44;5.07;;;1.73;;
71125;SDS011;58785;55.566;38.058;2023-07-20T11:11:37;8.38;;;2.70;;
71125;SDS011;58785;55.566;38.058;2023-07-20T11:14:05;13.18;;;2.80;;
71125;SDS011;58785;55.566;38.058;2023-07-20T11:19:29;6.07;;;2.30;;
71125;SDS011;58785;55.566;38.058;2023-07-20T11:21:55;5.30;;;1.60;;
71125;SDS011;58785;55.566;38.058;2023-07-20T11:24:23;6.30;;;1.80;;
71125;SDS011;58785;55.566;38.058;2023-07-20T11:26:53;5.78;;;1.70;;
71125;SDS011;58785;55.566;38.058;2023-07-20T11:29:40;6.07;;;1.88;;
71125;SDS011;58785;55.566;38.058;2023-07-20T11:32:07;12.40;;;2.43;;
71125;SDS011;58785;55.566;38.058;2023-07-20T11:34:59;6.63;;;1.90;;
71125;SDS011;58785;55.566;38.058;2023-07-20T11:37:48;4.82;;;1.67;;
71125;SDS011;58785;55.566;38.058;2023-07-20T11:40:13;7.40;;;1.50;;
71125;SDS011;58785;55.566;38.058;2023-07-20T11:42:39;8.63;;;2.00;;
71125;SDS011;58785;55.566;38.058;2023-07-20T11:45:06;4.00;;;1.40;;
71125;SDS011;58785;55.566;38.058;2023-07-20T11:47:32;4.95;;;1.52;;
71125;SDS011;58785;55.566;38.058;2023-07-20T11:50:02;5.72;;;1.50;;
71125;SDS011;58785;55.566;38.058;2023-07-20T11:52:30;4.50;;;1.13;;
71125;SDS011;58785;55.566;38.058;2023-07-20T11:54:56;5.22;;;1.60;;
71125;SDS011;58785;55.566;38.058;2023-07-20T11:57:23;5.40;;;1.60;;
71125;SDS011;58785;55.566;38.058;2023-07-20T12:02:37;5.93;;;1.60;;
71125;SDS011;58785;55.566;38.058;2023-07-20T12:05:06;6.65;;;1.70;;
71125;SDS011;58785;55.566;38.058;2023-07-20T12:07:34;7.45;;;2.13;;
71125;SDS011;58785;55.566;38.058;2023-07-20T12:10:09;7.72;;;2.00;;
71125;SDS011;58785;55.566;38.058;2023-07-20T12:12:40;6.88;;;1.85;;
71125;SDS011;58785;55.566;38.058;2023-07-20T12:15:13;7.73;;;1.87;;
71125;SDS011;58785;55.566;38.058;2023-07-20T12:17:43;5.32;;;1.83;;
71125;SDS011;58785;55.566;38.058;2023-07-20T12:20:23;6.03;;;2.00;;
71125;SDS011;58785;55.566;38.058;2023-07-20T12:22:55;6.93;;;2.00;;
71125;SDS011;58785;55.566;38.058;2023-07-20T12:25:25;11.23;;;1.83;;
71125;SDS011;58785;55.566;38.058;2023-07-20T12:28:17;6.27;;;1.53;;
71125;SDS011;58785;55.566;38.058;2023-07-20T12:30:45;6.38;;;1.80;;
71125;SDS011;58785;55.566;38.058;2023-07-20T12:33:12;4.97;;;1.30;;
71125;SDS011;58785;55.566;38.058;2023-07-20T12:35:40;5.15;;;1.70;;
71125;SDS011;58785;55.566;38.058;2023-07-20T12:38:06;6.20;;;1.60;;
71125;SDS011;58785;55.566;38.058;2023-07-20T12:40:32;6.70;;;1.95;;
71125;SDS011;58785;55.566;38.058;2023-07-20T12:42:59;4.55;;;1.20;;
71125;SDS011;58785;55.566;38.058;2023-07-20T12:45:25;6.30;;;1.20;;
71125;SDS011;58785;55.566;38.058;2023-07-20T12:47:50;3.50;;;1.25;;
71125;SDS011;58785;55.566;38.058;2023-07-20T12:50:16;4.60;;;1.30;;
71125;SDS011;58785;55.566;38.058;2023-07-20T12:52:42;6.55;;;1.58;;
71125;SDS011;58785;55.566;38.058;2023-07-20T12:55:08;5.23;;;1.53;;
71125;SDS011;58785;55.566;38.058;2023-07-20T12:57:35;5.50;;;1.40;;
71125;SDS011;58785;55.566;38.058;2023-07-20T13:00:03;4.80;;;1.50;;
71125;SDS011;58785;55.566;38.058;2023-07-20T13:02:33;5.60;;;1.38;;
71125;SDS011;58785;55.566;38.058;2023-07-20T13:05:00;4.17;;;1.20;;
71125;SDS011;58785;55.566;38.058;2023-07-20T13:07:29;4.50;;;1.30;;
71125;SDS011;58785;55.566;38.058;2023-07-20T13:09:59;6.15;;;2.10;;
71125;SDS011;58785;55.566;38.058;2023-07-20T13:12:30;6.80;;;1.80;;
71125;SDS011;58785;55.566;38.058;2023-07-20T13:14:56;7.45;;;1.40;;
71125;SDS011;58785;55.566;38.058;2023-07-20T13:17:25;5.45;;;1.60;;
71125;SDS011;58785;55.566;38.058;2023-07-20T13:19:52;4.93;;;1.80;;
71125;SDS011;58785;55.566;38.058;2023-07-20T13:22:18;6.00;;;1.80;;
71125;SDS011;58785;55.566;38.058;2023-07-20T13:24:46;4.68;;;1.65;;
71125;SDS011;58785;55.566;38.058;2023-07-20T13:27:16;5.30;;;2.17;;
71125;SDS011;58785;55.566;38.058;2023-07-20T13:29:42;6.90;;;2.43;;
71125;SDS011;58785;55.566;38.058;2023-07-20T13:32:09;7.07;;;2.05;;
71125;SDS011;58785;55.566;38.058;2023-07-20T13:34:35;7.00;;;1.90;;
71125;SDS011;58785;55.566;38.058;2023-07-20T13:37:01;4.93;;;1.30;;
71125;SDS011;58785;55.566;38.058;2023-07-20T13:39:27;8.00;;;1.63;;
71125;SDS011;58785;55.566;38.058;2023-07-20T13:41:53;5.97;;;1.77;;
71125;SDS011;58785;55.566;38.058;2023-07-20T13:44:20;8.95;;;2.20;;
71125;SDS011;58785;55.566;38.058;2023-07-20T13:46:46;3.80;;;1.15;;
71125;SDS011;58785;55.566;38.058;2023-07-20T13:49:12;5.05;;;1.02;;
71125;SDS011;58785;55.566;38.058;2023-07-20T13:51:38;6.20;;;1.40;;
71125;SDS011;58785;55.566;38.058;2023-07-20T13:54:04;6.97;;;1.40;;
71125;SDS011;58785;55.566;38.058;2023-07-20T13:56:29;6.80;;;2.40;;
71125;SDS011;58785;55.566;38.058;2023-07-20T13:58:55;4.55;;;1.60;;
71125;SDS011;58785;55.566;38.058;2023-07-20T14:01:21;8.77;;;1.27;;
71125;SDS011;58785;55.566;38.058;2023-07-20T14:03:50;6.53;;;1.60;;
71125;SDS011;58785;55.566;38.058;2023-07-20T14:06:16;10.43;;;2.08;;
71125;SDS011;58785;55.566;38.058;2023-07-20T14:08:42;8.43;;;2.97;;
71125;SDS011;58785;55.566;38.058;2023-07-20T14:11:12;12.52;;;3.90;;
71125;SDS011;58785;55.566;38.058;2023-07-20T14:13:38;11.70;;;4.20;;
71125;SDS011;58785;55.566;38.058;2023-07-20T14:16:04;8.90;;;2.87;;
71125;SDS011;58785;55.566;38.058;2023-07-20T14:18:30;8.30;;;2.40;;
71125;SDS011;58785;55.566;38.058;2023-07-20T14:20:57;6.70;;;1.92;;
71125;SDS011;58785;55.566;38.058;2023-07-20T14:23:22;6.20;;;1.77;;
71125;SDS011;58785;55.566;38.058;2023-07-20T14:25:49;4.67;;;1.70;;
71125;SDS011;58785;55.566;38.058;2023-07-20T14:28:15;6.00;;;1.65;;
71125;SDS011;58785;55.566;38.058;2023-07-20T14:30:41;5.53;;;1.97;;
71125;SDS011;58785;55.566;38.058;2023-07-20T14:33:07;6.47;;;2.10;;
71125;SDS011;58785;55.566;38.058;2023-07-20T14:35:33;4.55;;;1.60;;
71125;SDS011;58785;55.566;38.058;2023-07-20T14:38:00;6.73;;;1.63;;
71125;SDS011;58785;55.566;38.058;2023-07-20T14:40:28;6.50;;;1.90;;
71125;SDS011;58785;55.566;38.058;2023-07-20T14:42:55;7.30;;;2.03;;
71125;SDS011;58785;55.566;38.058;2023-07-20T14:45:21;8.60;;;2.30;;
71125;SDS011;58785;55.566;38.058;2023-07-20T14:47:46;8.60;;;2.67;;
71125;SDS011;58785;55.566;38.058;2023-07-20T14:50:18;5.20;;;1.60;;
71125;SDS011;58785;55.566;38.058;2023-07-20T14:52:44;7.07;;;1.70;;